• Join FlightAware (Why Join?)
  • Login
  • US Flag 
07:33AM EDT


 

Airport Tracker/Info


-or-


 

Live Flight TrackerFlight Track Log ✈ UAL822 ✈ 22-Apr-2013 ✈ KORD - KIAD

Flight Track Log - Related Links

Times and Time Zones

All times are in EDT time to prevent confusion due to time zone crossing. See the UAL822 flight status page for this flight to view local times or setup timezone preferences in your user account.

Time Position Orientation Groundspeed Altitude Reporting Facility
EDT Latitude Longitude Course Direction KTS MPH feet Rate Location/Type
12:27PM 41.9333 -87.9000 90° East 161 185 2,200  Level Chicago TRACON
12:28PM 41.9167 -87.8333 109° East 208 239 4,000 1,140 Climbing Chicago TRACON
12:29PM 41.9453 -87.3051 96° East  Level FlightAware Approximate
12:30PM 41.9339 -87.1568 96° East  Level FlightAware Approximate
12:30PM 41.9083 -87.6192 93° East 262 302 6,100  Level Chicago Center
12:31PM 41.9333 -87.0078 90° East  Level FlightAware Approximate
12:31PM 41.9144 -87.5169 85° East 275 316 10,000  Level Chicago Center
12:32PM 41.9334 -86.8587 90° East  Level FlightAware Approximate
12:32PM 41.9231 -87.4078 84° East 290 334 13,100  Level Chicago Center
12:33PM 41.9311 -87.2914 85° East 311 358 16,200 3,000 Climbing Chicago Center
12:34PM 41.9397 -87.1439 85° East 330 380 19,300 2,640 Climbing Chicago Center
12:35PM 41.9469 -87.0164 86° East 343 395 21,700 2,220 Climbing Chicago Center
12:36PM 41.9481 -86.8831 89° East 356 410 24,000 1,920 Climbing Chicago Center
12:37PM 41.9497 -86.7458 89° East 367 422 25,700 1,680 Climbing Chicago Center
12:38PM 41.9519 -86.6039 89° East 387 445 27,500 1,740 Climbing Chicago Center
12:39PM 41.9533 -86.4550 89° East 398 458 29,400 1,500 Climbing Chicago Center
12:40PM 41.9553 -86.2703 89° East 409 471 30,600 840 Climbing Chicago Center
12:41PM 41.9342 -86.1044 100° East 448 516 31,200 960 Climbing Chicago Center
12:42PM 41.9014 -85.9375 105° East 461 531 32,600 1,320 Climbing Chicago Center
12:43PM 41.8678 -85.7689 105° East 467 537 34,000 1,200 Climbing Chicago Center
12:44PM 41.8342 -85.6003 105° East 466 536 35,200 1,320 Climbing Chicago Center
12:45PM 41.8000 -85.4303 105° East 464 534 36,800 1,140 Climbing Chicago Center
12:46PM 41.7647 -85.2603 105° East 463 533 37,600 780 Climbing Chicago Center
12:47PM 41.7303 -85.0892 105° East 469 540 38,500 660 Climbing Chicago Center
12:48PM 41.7069 -84.9728 105° East 472 543 38,700 300 Climbing Cleveland Center
12:49PM 41.6736 -84.8036 105° East 472 543 39,000 120 Climbing Cleveland Center
12:50PM 41.6592 -84.6303 96° East 467 537 39,000  Level Cleveland Center
12:51PM 41.6508 -84.4517 94° East 467 537 39,000  Level Cleveland Center
12:52PM 41.6461 -84.2736 92° East 474 545 39,000  Level Cleveland Center
12:53PM 41.6350 -84.0950 95° East 479 551 39,000  Level Cleveland Center
12:54PM 41.6258 -83.9197 94° East 479 551 39,000  Level Cleveland Center
12:55PM 41.6164 -83.7358 94° East 485 558 39,000  Level Cleveland Center
12:56PM 41.5878 -83.5622 102° East 485 558 39,000  Level Cleveland Center
12:57PM 41.5142 -83.4144 124° Southeast 464 534 39,000  Level Cleveland Center
12:58PM 41.4386 -83.2700 125° Southeast 469 540 39,000  Level Cleveland Center
12:59PM 41.3625 -83.1258 125° Southeast 474 545 39,000  Level Cleveland Center
01:00PM 41.2864 -82.9817 125° Southeast 485 558 39,000  Level Cleveland Center
01:01PM 41.2103 -82.8353 125° Southeast 485 558 39,000  Level Cleveland Center
01:02PM 41.1336 -82.6922 125° Southeast 480 552 39,000  Level Cleveland Center
01:03PM 41.0592 -82.5492 125° Southeast 480 552 39,000  Level Cleveland Center
01:04PM 40.9822 -82.4067 126° Southeast 480 552 39,000  Level Cleveland Center
01:05PM 40.9053 -82.2644 126° Southeast 480 552 39,000  Level Cleveland Center
01:06PM 40.8281 -82.1253 126° Southeast 480 552 39,000  Level Cleveland Center
01:07PM 40.7486 -81.9808 126° Southeast 480 552 39,000  Level Cleveland Center
01:08PM 40.6731 -81.8369 125° Southeast 480 552 39,000  Level Cleveland Center
01:09PM 40.6036 -81.7125 126° Southeast 480 552 39,000  Level Cleveland Center
01:10PM 40.5256 -81.5692 126° Southeast 480 552 39,000  Level Cleveland Center
01:11PM 40.4497 -81.4289 125° Southeast 480 552 39,000  Level Cleveland Center
01:12PM 40.3733 -81.2889 126° Southeast 480 552 39,000  Level Cleveland Center
01:13PM 40.2972 -81.1519 126° Southeast 480 552 39,000 -120 Level Cleveland Center
01:14PM 40.2186 -81.0128 126° Southeast 480 552 38,800 -1,080 Descending Cleveland Center
01:15PM 40.1419 -80.8764 126° Southeast 480 552 36,900 -1,980 Descending Cleveland Center
01:16PM 40.0692 -80.7431 125° Southeast 469 540 34,900 -1,920 Descending Cleveland Center
01:17PM 39.9900 -80.6047 127° Southeast 455 524 33,100 -960 Descending Cleveland Center
01:18PM 39.9192 -80.4828 127° Southeast 435 501 33,000 -60 Descending Cleveland Center
01:19PM 39.8481 -80.3558 126° Southeast 435 501 33,000  Level Cleveland Center
01:21PM 39.6922 -80.0897 127° Southeast 440 506 33,000 -120 Level Washington Center
01:22PM 39.6217 -79.9694 127° Southeast 428 493 32,800 -1,320 Descending Washington Center
01:23PM 39.5619 -79.8367 120° Southeast 428 493 30,400 -2,280 Descending Washington Center
01:24PM 39.5294 -79.6867 106° East 422 486 28,300 -1,740 Descending Washington Center
01:25PM 39.5031 -79.5400 103° East 422 486 27,000 -1,020 Descending Washington Center
01:26PM 39.4767 -79.3881 103° East 422 486 26,300 -1,200 Descending Washington Center
01:27PM 39.4425 -79.2194 105° East 432 497 24,600 -1,920 Descending Washington Center
01:28PM 39.4175 -79.0733 102° East 432 497 22,500 -2,160 Descending Washington Center
01:29PM 39.3903 -78.9294 104° East 425 489 20,300 -2,100 Descending Washington Center
01:30PM 39.3647 -78.7994 104° East 403 464 18,300 -1,800 Descending Washington Center
01:31PM 39.3431 -78.6697 102° East 381 438 16,800 -1,800 Descending Washington Center
01:32PM 39.3211 -78.5428 103° East 370 426 14,800 -1,980 Descending Washington Center
01:33PM 39.2992 -78.4211 103° East 360 414 12,900 -1,740 Descending Washington Center
01:34PM 39.2600 -78.3125 115° Southeast 344 396 11,400 -1,260 Descending Washington Center
01:35PM 39.2119 -78.2247 125° Southeast 319 367 10,400 -1,620 Descending Washington Center
01:36PM 39.1700 -78.1431 124° Southeast 296 341 8,200 -2,160 Descending Washington Center
01:37PM 39.1256 -78.0639 126° Southeast 281 323 6,100 -1,140 Descending Washington Center
01:38PM 39.0875 -77.9878 123° Southeast 266 306 6,000 -60 Descending Washington Center
01:39PM 39.0472 -77.9142 125° Southeast 261 300 6,000  Level Washington Center
01:40PM 39.0131 -77.8464 123° Southeast 256 295 6,000  Level Washington Center
01:41PM 38.9689 -77.7650 125° Southeast 256 295 6,000  Level Washington Center
01:43PM 38.9333 -77.6167 107° East 230 265 6,000 -60 Level Potomac TRACON
01:44PM 38.8833 -77.5833 153° Southeast 226 260 5,900 -960 Descending Potomac TRACON
01:45PM 38.8167 -77.5667 169° South 237 273 4,100 -1,020 Descending Potomac TRACON
01:46PM 38.7667 -77.5667 180° South 241 277 3,900 -420 Descending Potomac TRACON
01:47PM 38.7667 -77.5000 90° East 188 216 3,400 -480 Descending Potomac TRACON
01:48PM 38.8000 -77.4667 38° Northeast 179 206 3,000 -420 Descending Potomac TRACON